sensor_id;sensor_type;location;lat;lon;timestamp;P1;durP1;ratioP1;P2;durP2;ratioP2
579;SDS011;276;48.392;9.950;2023-01-20T00:01:37;13.23;;;11.90;;
579;SDS011;276;48.392;9.950;2023-01-20T00:04:04;12.03;;;10.80;;
579;SDS011;276;48.392;9.950;2023-01-20T00:06:33;12.57;;;11.27;;
579;SDS011;276;48.392;9.950;2023-01-20T00:09:00;12.43;;;11.23;;
579;SDS011;276;48.392;9.950;2023-01-20T00:11:27;13.40;;;12.00;;
579;SDS011;276;48.392;9.950;2023-01-20T00:13:55;11.90;;;10.23;;
579;SDS011;276;48.392;9.950;2023-01-20T00:16:24;12.83;;;11.60;;
579;SDS011;276;48.392;9.950;2023-01-20T00:18:51;13.20;;;11.80;;
579;SDS011;276;48.392;9.950;2023-01-20T00:21:20;13.07;;;11.77;;
579;SDS011;276;48.392;9.950;2023-01-20T00:23:50;13.40;;;12.03;;
579;SDS011;276;48.392;9.950;2023-01-20T00:26:19;13.77;;;12.40;;
579;SDS011;276;48.392;9.950;2023-01-20T00:28:49;13.03;;;11.83;;
579;SDS011;276;48.392;9.950;2023-01-20T00:31:21;14.17;;;12.70;;
579;SDS011;276;48.392;9.950;2023-01-20T00:33:59;13.67;;;11.87;;
579;SDS011;276;48.392;9.950;2023-01-20T00:36:26;12.93;;;10.27;;
579;SDS011;276;48.392;9.950;2023-01-20T00:38:55;12.57;;;11.37;;
579;SDS011;276;48.392;9.950;2023-01-20T00:41:23;11.87;;;10.77;;
579;SDS011;276;48.392;9.950;2023-01-20T00:43:49;12.63;;;11.10;;
579;SDS011;276;48.392;9.950;2023-01-20T00:46:15;11.53;;;10.43;;
579;SDS011;276;48.392;9.950;2023-01-20T00:48:43;12.20;;;11.00;;
579;SDS011;276;48.392;9.950;2023-01-20T00:51:11;11.80;;;10.57;;
579;SDS011;276;48.392;9.950;2023-01-20T00:53:39;12.70;;;11.57;;
579;SDS011;276;48.392;9.950;2023-01-20T00:56:04;12.23;;;11.03;;
579;SDS011;276;48.392;9.950;2023-01-20T00:58:31;12.73;;;11.53;;
579;SDS011;276;48.392;9.950;2023-01-20T01:00:57;12.50;;;11.27;;
579;SDS011;276;48.392;9.950;2023-01-20T01:03:22;12.17;;;11.07;;
579;SDS011;276;48.392;9.950;2023-01-20T01:05:49;12.67;;;11.47;;
579;SDS011;276;48.392;9.950;2023-01-20T01:08:14;12.83;;;11.63;;
579;SDS011;276;48.392;9.950;2023-01-20T01:10:40;12.83;;;11.53;;
579;SDS011;276;48.392;9.950;2023-01-20T01:13:11;12.50;;;11.30;;
579;SDS011;276;48.392;9.950;2023-01-20T01:15:36;11.87;;;10.57;;
579;SDS011;276;48.392;9.950;2023-01-20T01:18:04;12.00;;;10.90;;
579;SDS011;276;48.392;9.950;2023-01-20T01:20:32;12.77;;;11.40;;
579;SDS011;276;48.392;9.950;2023-01-20T01:22:57;11.77;;;10.40;;
579;SDS011;276;48.392;9.950;2023-01-20T01:25:26;12.37;;;11.23;;
579;SDS011;276;48.392;9.950;2023-01-20T01:27:53;13.20;;;11.90;;
579;SDS011;276;48.392;9.950;2023-01-20T01:30:19;13.47;;;12.07;;
579;SDS011;276;48.392;9.950;2023-01-20T01:32:45;13.90;;;12.53;;
579;SDS011;276;48.392;9.950;2023-01-20T01:35:11;11.60;;;10.50;;
579;SDS011;276;48.392;9.950;2023-01-20T01:37:37;13.73;;;12.37;;
579;SDS011;276;48.392;9.950;2023-01-20T01:40:03;11.50;;;10.40;;
579;SDS011;276;48.392;9.950;2023-01-20T01:42:31;11.20;;;10.20;;
579;SDS011;276;48.392;9.950;2023-01-20T01:45:23;11.63;;;10.53;;
579;SDS011;276;48.392;9.950;2023-01-20T01:51:20;11.40;;;10.40;;
579;SDS011;276;48.392;9.950;2023-01-20T01:53:19;11.87;;;10.20;;
579;SDS011;276;48.392;9.950;2023-01-20T01:55:47;10.83;;;9.83;;
579;SDS011;276;48.392;9.950;2023-01-20T01:58:16;11.20;;;10.10;;
579;SDS011;276;48.392;9.950;2023-01-20T02:00:46;11.70;;;10.50;;
579;SDS011;276;48.392;9.950;2023-01-20T02:03:12;12.00;;;10.80;;
579;SDS011;276;48.392;9.950;2023-01-20T02:05:41;11.53;;;10.43;;
579;SDS011;276;48.392;9.950;2023-01-20T02:08:07;10.23;;;9.10;;
579;SDS011;276;48.392;9.950;2023-01-20T02:10:33;11.77;;;10.57;;
579;SDS011;276;48.392;9.950;2023-01-20T02:13:04;13.07;;;10.03;;
579;SDS011;276;48.392;9.950;2023-01-20T02:15:32;11.67;;;10.53;;
579;SDS011;276;48.392;9.950;2023-01-20T02:27:07;11.40;;;10.30;;
579;SDS011;276;48.392;9.950;2023-01-20T02:32:23;9.50;;;8.60;;
579;SDS011;276;48.392;9.950;2023-01-20T02:35:09;9.90;;;9.00;;
579;SDS011;276;48.392;9.950;2023-01-20T02:38:00;8.80;;;7.93;;
579;SDS011;276;48.392;9.950;2023-01-20T02:40:35;10.50;;;9.50;;
579;SDS011;276;48.392;9.950;2023-01-20T02:46:25;11.30;;;10.23;;
579;SDS011;276;48.392;9.950;2023-01-20T02:52:10;9.00;;;8.20;;
579;SDS011;276;48.392;9.950;2023-01-20T02:54:57;10.80;;;9.80;;
579;SDS011;276;48.392;9.950;2023-01-20T02:57:29;13.00;;;10.23;;
579;SDS011;276;48.392;9.950;2023-01-20T03:00:02;10.20;;;9.20;;
579;SDS011;276;48.392;9.950;2023-01-20T03:02:32;9.70;;;8.70;;
579;SDS011;276;48.392;9.950;2023-01-20T03:05:07;10.00;;;8.90;;
579;SDS011;276;48.392;9.950;2023-01-20T03:07:42;9.53;;;8.63;;
579;SDS011;276;48.392;9.950;2023-01-20T03:10:16;9.60;;;8.73;;
579;SDS011;276;48.392;9.950;2023-01-20T03:12:49;9.20;;;8.30;;
579;SDS011;276;48.392;9.950;2023-01-20T03:15:18;9.80;;;8.20;;
579;SDS011;276;48.392;9.950;2023-01-20T03:17:48;9.87;;;8.97;;
579;SDS011;276;48.392;9.950;2023-01-20T03:20:17;10.67;;;9.57;;
579;SDS011;276;48.392;9.950;2023-01-20T03:22:45;11.90;;;9.33;;
579;SDS011;276;48.392;9.950;2023-01-20T03:25:10;10.80;;;9.83;;
579;SDS011;276;48.392;9.950;2023-01-20T03:27:38;9.80;;;9.00;;
579;SDS011;276;48.392;9.950;2023-01-20T03:30:15;13.13;;;11.07;;
579;SDS011;276;48.392;9.950;2023-01-20T03:32:44;9.30;;;7.87;;
579;SDS011;276;48.392;9.950;2023-01-20T03:35:13;9.30;;;8.30;;
579;SDS011;276;48.392;9.950;2023-01-20T03:37:40;9.80;;;7.80;;
579;SDS011;276;48.392;9.950;2023-01-20T03:40:10;7.40;;;6.70;;
579;SDS011;276;48.392;9.950;2023-01-20T03:42:50;8.23;;;7.37;;
579;SDS011;276;48.392;9.950;2023-01-20T03:53:13;9.90;;;8.03;;
579;SDS011;276;48.392;9.950;2023-01-20T03:58:17;7.20;;;6.60;;
579;SDS011;276;48.392;9.950;2023-01-20T04:00:57;7.80;;;7.00;;
579;SDS011;276;48.392;9.950;2023-01-20T04:03:30;8.40;;;7.60;;
579;SDS011;276;48.392;9.950;2023-01-20T04:05:59;9.97;;;9.00;;
579;SDS011;276;48.392;9.950;2023-01-20T04:08:29;8.13;;;7.37;;
579;SDS011;276;48.392;9.950;2023-01-20T04:11:03;10.07;;;8.77;;
579;SDS011;276;48.392;9.950;2023-01-20T04:13:32;9.23;;;8.33;;
579;SDS011;276;48.392;9.950;2023-01-20T04:16:01;8.60;;;7.93;;
579;SDS011;276;48.392;9.950;2023-01-20T04:18:37;9.20;;;8.37;;
579;SDS011;276;48.392;9.950;2023-01-20T04:21:09;9.17;;;8.30;;
579;SDS011;276;48.392;9.950;2023-01-20T04:23:48;9.13;;;8.23;;
579;SDS011;276;48.392;9.950;2023-01-20T04:26:21;9.00;;;7.97;;
579;SDS011;276;48.392;9.950;2023-01-20T04:28:47;9.20;;;8.33;;
579;SDS011;276;48.392;9.950;2023-01-20T04:31:15;8.37;;;7.67;;
579;SDS011;276;48.392;9.950;2023-01-20T04:33:46;8.67;;;7.87;;
579;SDS011;276;48.392;9.950;2023-01-20T04:36:11;8.57;;;7.83;;
579;SDS011;276;48.392;9.950;2023-01-20T04:38:37;8.77;;;7.93;;
579;SDS011;276;48.392;9.950;2023-01-20T04:41:05;9.10;;;8.27;;
579;SDS011;276;48.392;9.950;2023-01-20T04:43:33;8.47;;;7.40;;
579;SDS011;276;48.392;9.950;2023-01-20T04:46:01;7.20;;;6.43;;
579;SDS011;276;48.392;9.950;2023-01-20T04:48:28;7.53;;;6.93;;
579;SDS011;276;48.392;9.950;2023-01-20T04:50:55;8.00;;;7.13;;
579;SDS011;276;48.392;9.950;2023-01-20T04:53:21;8.50;;;7.27;;
579;SDS011;276;48.392;9.950;2023-01-20T04:55:47;8.17;;;7.47;;
579;SDS011;276;48.392;9.950;2023-01-20T04:58:12;8.50;;;7.30;;
579;SDS011;276;48.392;9.950;2023-01-20T05:00:38;7.87;;;7.17;;
579;SDS011;276;48.392;9.950;2023-01-20T05:03:06;8.37;;;7.30;;
579;SDS011;276;48.392;9.950;2023-01-20T05:05:31;6.83;;;6.10;;
579;SDS011;276;48.392;9.950;2023-01-20T05:07:57;6.70;;;6.20;;
579;SDS011;276;48.392;9.950;2023-01-20T05:10:28;7.17;;;6.63;;
579;SDS011;276;48.392;9.950;2023-01-20T05:12:58;6.90;;;6.30;;
579;SDS011;276;48.392;9.950;2023-01-20T05:15:26;6.60;;;6.00;;
579;SDS011;276;48.392;9.950;2023-01-20T05:17:52;6.53;;;6.03;;
579;SDS011;276;48.392;9.950;2023-01-20T05:20:18;6.87;;;6.37;;
579;SDS011;276;48.392;9.950;2023-01-20T05:22:44;7.40;;;6.80;;
579;SDS011;276;48.392;9.950;2023-01-20T05:25:13;7.73;;;6.70;;
579;SDS011;276;48.392;9.950;2023-01-20T05:27:39;8.33;;;7.53;;
579;SDS011;276;48.392;9.950;2023-01-20T05:30:04;6.33;;;5.83;;
579;SDS011;276;48.392;9.950;2023-01-20T05:32:35;6.90;;;6.30;;
579;SDS011;276;48.392;9.950;2023-01-20T05:35:01;7.63;;;6.80;;
579;SDS011;276;48.392;9.950;2023-01-20T05:37:31;6.13;;;5.63;;
579;SDS011;276;48.392;9.950;2023-01-20T05:39:59;6.73;;;6.10;;
579;SDS011;276;48.392;9.950;2023-01-20T05:42:27;6.40;;;5.93;;
579;SDS011;276;48.392;9.950;2023-01-20T05:44:53;7.00;;;5.90;;
579;SDS011;276;48.392;9.950;2023-01-20T05:47:20;6.93;;;6.50;;
579;SDS011;276;48.392;9.950;2023-01-20T05:49:48;6.57;;;5.97;;
579;SDS011;276;48.392;9.950;2023-01-20T05:52:16;6.83;;;5.93;;
579;SDS011;276;48.392;9.950;2023-01-20T05:54:47;7.30;;;6.00;;
579;SDS011;276;48.392;9.950;2023-01-20T05:57:13;9.13;;;7.27;;
579;SDS011;276;48.392;9.950;2023-01-20T05:59:42;10.70;;;8.87;;
579;SDS011;276;48.392;9.950;2023-01-20T06:02:13;10.00;;;9.20;;
579;SDS011;276;48.392;9.950;2023-01-20T06:04:44;11.83;;;10.67;;
579;SDS011;276;48.392;9.950;2023-01-20T06:07:13;10.17;;;9.20;;
579;SDS011;276;48.392;9.950;2023-01-20T06:09:39;9.63;;;8.83;;
579;SDS011;276;48.392;9.950;2023-01-20T06:12:05;11.63;;;10.43;;
579;SDS011;276;48.392;9.950;2023-01-20T06:14:33;12.15;;;11.10;;
579;SDS011;276;48.392;9.950;2023-01-20T06:17:04;11.67;;;10.47;;
579;SDS011;276;48.392;9.950;2023-01-20T06:19:29;12.00;;;10.80;;
579;SDS011;276;48.392;9.950;2023-01-20T06:21:57;10.07;;;9.10;;
579;SDS011;276;48.392;9.950;2023-01-20T06:24:23;9.70;;;8.83;;
579;SDS011;276;48.392;9.950;2023-01-20T06:26:51;13.60;;;10.80;;
579;SDS011;276;48.392;9.950;2023-01-20T06:29:21;14.57;;;10.80;;
579;SDS011;276;48.392;9.950;2023-01-20T06:31:46;12.17;;;11.17;;
579;SDS011;276;48.392;9.950;2023-01-20T06:34:12;14.83;;;11.90;;
579;SDS011;276;48.392;9.950;2023-01-20T06:36:38;17.23;;;15.17;;
579;SDS011;276;48.392;9.950;2023-01-20T06:39:06;18.00;;;15.77;;
579;SDS011;276;48.392;9.950;2023-01-20T06:41:36;14.67;;;13.17;;
579;SDS011;276;48.392;9.950;2023-01-20T06:44:04;13.40;;;11.10;;
579;SDS011;276;48.392;9.950;2023-01-20T06:46:30;13.43;;;12.07;;
579;SDS011;276;48.392;9.950;2023-01-20T06:48:58;19.60;;;15.67;;
579;SDS011;276;48.392;9.950;2023-01-20T06:51:29;14.60;;;12.73;;
579;SDS011;276;48.392;9.950;2023-01-20T06:53:55;13.00;;;10.30;;
579;SDS011;276;48.392;9.950;2023-01-20T06:56:23;11.40;;;10.40;;
579;SDS011;276;48.392;9.950;2023-01-20T06:58:49;10.73;;;9.37;;
579;SDS011;276;48.392;9.950;2023-01-20T07:01:25;11.47;;;10.37;;
579;SDS011;276;48.392;9.950;2023-01-20T07:03:55;11.70;;;10.50;;
579;SDS011;276;48.392;9.950;2023-01-20T07:08:57;11.50;;;10.37;;
579;SDS011;276;48.392;9.950;2023-01-20T07:11:26;12.83;;;10.80;;
579;SDS011;276;48.392;9.950;2023-01-20T07:13:58;13.07;;;11.57;;
579;SDS011;276;48.392;9.950;2023-01-20T07:16:24;13.63;;;12.40;;
579;SDS011;276;48.392;9.950;2023-01-20T07:18:50;12.93;;;11.63;;
579;SDS011;276;48.392;9.950;2023-01-20T07:21:17;15.57;;;14.07;;
579;SDS011;276;48.392;9.950;2023-01-20T07:23:48;16.50;;;15.00;;
579;SDS011;276;48.392;9.950;2023-01-20T07:26:17;15.67;;;14.27;;
579;SDS011;276;48.392;9.950;2023-01-20T07:28:47;16.17;;;14.40;;
579;SDS011;276;48.392;9.950;2023-01-20T07:31:22;16.87;;;15.17;;
579;SDS011;276;48.392;9.950;2023-01-20T07:33:55;16.97;;;15.37;;
579;SDS011;276;48.392;9.950;2023-01-20T07:36:21;15.53;;;13.93;;
579;SDS011;276;48.392;9.950;2023-01-20T07:38:51;17.50;;;15.80;;
579;SDS011;276;48.392;9.950;2023-01-20T07:41:17;15.90;;;14.30;;
579;SDS011;276;48.392;9.950;2023-01-20T07:43:45;17.90;;;15.73;;
579;SDS011;276;48.392;9.950;2023-01-20T07:46:14;15.90;;;14.40;;
579;SDS011;276;48.392;9.950;2023-01-20T07:48:43;16.77;;;15.10;;
579;SDS011;276;48.392;9.950;2023-01-20T07:51:12;16.90;;;15.40;;
579;SDS011;276;48.392;9.950;2023-01-20T07:53:42;16.03;;;14.50;;
579;SDS011;276;48.392;9.950;2023-01-20T07:56:11;15.40;;;13.90;;
579;SDS011;276;48.392;9.950;2023-01-20T07:58:39;16.17;;;14.47;;
579;SDS011;276;48.392;9.950;2023-01-20T08:01:11;17.63;;;14.53;;
579;SDS011;276;48.392;9.950;2023-01-20T08:03:37;17.07;;;15.30;;
579;SDS011;276;48.392;9.950;2023-01-20T08:06:03;16.03;;;14.40;;
579;SDS011;276;48.392;9.950;2023-01-20T08:08:35;16.67;;;14.83;;
579;SDS011;276;48.392;9.950;2023-01-20T08:11:01;15.33;;;13.80;;
579;SDS011;276;48.392;9.950;2023-01-20T08:13:30;16.20;;;14.50;;
579;SDS011;276;48.392;9.950;2023-01-20T08:16:00;19.37;;;17.30;;
579;SDS011;276;48.392;9.950;2023-01-20T08:18:30;17.47;;;15.77;;
579;SDS011;276;48.392;9.950;2023-01-20T08:20:59;18.27;;;16.50;;
579;SDS011;276;48.392;9.950;2023-01-20T08:23:25;17.60;;;15.87;;
579;SDS011;276;48.392;9.950;2023-01-20T08:26:01;17.63;;;15.67;;
579;SDS011;276;48.392;9.950;2023-01-20T08:28:29;15.80;;;14.23;;
579;SDS011;276;48.392;9.950;2023-01-20T08:31:09;15.80;;;14.30;;
579;SDS011;276;48.392;9.950;2023-01-20T08:33:40;14.67;;;13.37;;
579;SDS011;276;48.392;9.950;2023-01-20T08:36:16;15.07;;;12.57;;
579;SDS011;276;48.392;9.950;2023-01-20T08:38:46;13.30;;;12.10;;
579;SDS011;276;48.392;9.950;2023-01-20T08:41:16;14.37;;;13.00;;
579;SDS011;276;48.392;9.950;2023-01-20T08:43:47;11.73;;;10.10;;
579;SDS011;276;48.392;9.950;2023-01-20T08:46:18;12.83;;;11.53;;
579;SDS011;276;48.392;9.950;2023-01-20T08:48:48;13.50;;;12.20;;
579;SDS011;276;48.392;9.950;2023-01-20T08:51:18;12.97;;;11.87;;
579;SDS011;276;48.392;9.950;2023-01-20T08:53:51;10.57;;;9.67;;
579;SDS011;276;48.392;9.950;2023-01-20T08:56:17;12.90;;;11.70;;
579;SDS011;276;48.392;9.950;2023-01-20T08:58:43;10.87;;;9.47;;
579;SDS011;276;48.392;9.950;2023-01-20T09:01:22;48.00;;;15.07;;
579;SDS011;276;48.392;9.950;2023-01-20T09:03:52;98.23;;;23.13;;
579;SDS011;276;48.392;9.950;2023-01-20T09:06:18;28.13;;;13.00;;
579;SDS011;276;48.392;9.950;2023-01-20T09:08:45;15.03;;;10.47;;
579;SDS011;276;48.392;9.950;2023-01-20T09:11:16;17.60;;;13.10;;
579;SDS011;276;48.392;9.950;2023-01-20T09:13:46;52.90;;;13.70;;
579;SDS011;276;48.392;9.950;2023-01-20T09:16:16;16.93;;;9.70;;
579;SDS011;276;48.392;9.950;2023-01-20T09:18:43;10.00;;;8.90;;
579;SDS011;276;48.392;9.950;2023-01-20T09:21:08;10.90;;;9.80;;
579;SDS011;276;48.392;9.950;2023-01-20T09:23:35;13.10;;;10.60;;
579;SDS011;276;48.392;9.950;2023-01-20T09:26:07;10.33;;;9.23;;
579;SDS011;276;48.392;9.950;2023-01-20T09:28:33;11.27;;;10.00;;
579;SDS011;276;48.392;9.950;2023-01-20T09:30:59;9.20;;;8.40;;
579;SDS011;276;48.392;9.950;2023-01-20T09:33:26;11.03;;;8.43;;
579;SDS011;276;48.392;9.950;2023-01-20T09:35:55;8.43;;;7.57;;
579;SDS011;276;48.392;9.950;2023-01-20T09:38:24;10.07;;;9.07;;
579;SDS011;276;48.392;9.950;2023-01-20T09:41:28;8.00;;;7.40;;
579;SDS011;276;48.392;9.950;2023-01-20T09:44:18;9.67;;;8.80;;
579;SDS011;276;48.392;9.950;2023-01-20T09:52:45;10.40;;;9.40;;
579;SDS011;276;48.392;9.950;2023-01-20T09:55:28;9.57;;;8.77;;
579;SDS011;276;48.392;9.950;2023-01-20T09:58:02;11.77;;;9.50;;
579;SDS011;276;48.392;9.950;2023-01-20T10:04:18;12.27;;;9.87;;
579;SDS011;276;48.392;9.950;2023-01-20T10:07:01;10.83;;;9.83;;
579;SDS011;276;48.392;9.950;2023-01-20T10:12:08;10.07;;;9.17;;
579;SDS011;276;48.392;9.950;2023-01-20T10:14:53;10.83;;;9.50;;
579;SDS011;276;48.392;9.950;2023-01-20T10:22:57;8.77;;;7.97;;
579;SDS011;276;48.392;9.950;2023-01-20T10:30:55;9.00;;;8.13;;
579;SDS011;276;48.392;9.950;2023-01-20T10:33:28;9.67;;;8.00;;
579;SDS011;276;48.392;9.950;2023-01-20T10:36:08;14.23;;;8.73;;
579;SDS011;276;48.392;9.950;2023-01-20T10:38:53;9.77;;;8.87;;
579;SDS011;276;48.392;9.950;2023-01-20T10:41:41;8.67;;;7.73;;
579;SDS011;276;48.392;9.950;2023-01-20T10:44:15;10.93;;;9.20;;
579;SDS011;276;48.392;9.950;2023-01-20T10:58:03;7.20;;;6.50;;
579;SDS011;276;48.392;9.950;2023-01-20T11:00:43;7.23;;;6.63;;
579;SDS011;276;48.392;9.950;2023-01-20T11:03:11;7.97;;;7.27;;
579;SDS011;276;48.392;9.950;2023-01-20T11:05:39;7.23;;;6.63;;
579;SDS011;276;48.392;9.950;2023-01-20T11:08:14;7.27;;;6.57;;
579;SDS011;276;48.392;9.950;2023-01-20T11:10:56;8.00;;;7.30;;
579;SDS011;276;48.392;9.950;2023-01-20T11:13:33;9.63;;;7.17;;
579;SDS011;276;48.392;9.950;2023-01-20T11:16:01;7.07;;;6.20;;
579;SDS011;276;48.392;9.950;2023-01-20T11:18:35;7.20;;;5.80;;
579;SDS011;276;48.392;9.950;2023-01-20T11:21:02;6.73;;;6.03;;
579;SDS011;276;48.392;9.950;2023-01-20T11:26:03;7.10;;;5.60;;
579;SDS011;276;48.392;9.950;2023-01-20T11:28:48;5.03;;;4.63;;
579;SDS011;276;48.392;9.950;2023-01-20T11:31:20;5.50;;;4.90;;
579;SDS011;276;48.392;9.950;2023-01-20T11:34:02;5.17;;;4.77;;
579;SDS011;276;48.392;9.950;2023-01-20T11:36:48;5.17;;;4.77;;
579;SDS011;276;48.392;9.950;2023-01-20T11:42:08;6.00;;;4.30;;
579;SDS011;276;48.392;9.950;2023-01-20T11:44:40;6.93;;;6.10;;
579;SDS011;276;48.392;9.950;2023-01-20T11:47:29;6.43;;;5.80;;
579;SDS011;276;48.392;9.950;2023-01-20T11:52:37;5.87;;;5.33;;
579;SDS011;276;48.392;9.950;2023-01-20T11:55:18;6.07;;;5.47;;
579;SDS011;276;48.392;9.950;2023-01-20T11:57:47;6.13;;;5.60;;
579;SDS011;276;48.392;9.950;2023-01-20T12:06:24;5.23;;;4.73;;
579;SDS011;276;48.392;9.950;2023-01-20T12:11:29;13.20;;;8.40;;
579;SDS011;276;48.392;9.950;2023-01-20T12:22:23;7.03;;;5.63;;
579;SDS011;276;48.392;9.950;2023-01-20T12:27:45;7.93;;;5.40;;
579;SDS011;276;48.392;9.950;2023-01-20T12:30:26;6.43;;;5.90;;
579;SDS011;276;48.392;9.950;2023-01-20T12:42:25;6.37;;;5.83;;
579;SDS011;276;48.392;9.950;2023-01-20T12:48:09;5.00;;;4.60;;
579;SDS011;276;48.392;9.950;2023-01-20T13:03:40;6.03;;;5.50;;
579;SDS011;276;48.392;9.950;2023-01-20T13:09:13;6.87;;;6.20;;
579;SDS011;276;48.392;9.950;2023-01-20T13:14:29;6.63;;;5.30;;
579;SDS011;276;48.392;9.950;2023-01-20T13:19:41;9.57;;;6.53;;
579;SDS011;276;48.392;9.950;2023-01-20T13:22:16;28.70;;;10.50;;
579;SDS011;276;48.392;9.950;2023-01-20T13:24:51;34.37;;;10.10;;
579;SDS011;276;48.392;9.950;2023-01-20T13:27:26;34.33;;;10.80;;
579;SDS011;276;48.392;9.950;2023-01-20T13:30:05;34.70;;;10.23;;
579;SDS011;276;48.392;9.950;2023-01-20T13:32:35;27.90;;;9.80;;
579;SDS011;276;48.392;9.950;2023-01-20T13:37:49;12.27;;;6.57;;
579;SDS011;276;48.392;9.950;2023-01-20T13:43:02;11.10;;;6.13;;
579;SDS011;276;48.392;9.950;2023-01-20T13:45:29;11.30;;;6.47;;
579;SDS011;276;48.392;9.950;2023-01-20T13:50:38;20.23;;;7.00;;
579;SDS011;276;48.392;9.950;2023-01-20T13:58:21;23.93;;;9.27;;
579;SDS011;276;48.392;9.950;2023-01-20T14:00:48;87.50;;;19.03;;
579;SDS011;276;48.392;9.950;2023-01-20T14:03:22;127.80;;;24.70;;
579;SDS011;276;48.392;9.950;2023-01-20T14:08:20;168.93;;;36.23;;
579;SDS011;276;48.392;9.950;2023-01-20T14:10:49;203.20;;;44.90;;
579;SDS011;276;48.392;9.950;2023-01-20T14:13:24;201.23;;;45.67;;
579;SDS011;276;48.392;9.950;2023-01-20T14:15:53;110.47;;;25.30;;
579;SDS011;276;48.392;9.950;2023-01-20T14:18:20;230.47;;;43.00;;
579;SDS011;276;48.392;9.950;2023-01-20T14:23:33;101.03;;;24.90;;
579;SDS011;276;48.392;9.950;2023-01-20T14:26:06;66.10;;;16.20;;
579;SDS011;276;48.392;9.950;2023-01-20T14:28:38;42.40;;;11.93;;
579;SDS011;276;48.392;9.950;2023-01-20T14:36:49;30.00;;;9.40;;
579;SDS011;276;48.392;9.950;2023-01-20T14:39:17;34.67;;;9.43;;
579;SDS011;276;48.392;9.950;2023-01-20T14:41:46;51.67;;;10.60;;
579;SDS011;276;48.392;9.950;2023-01-20T14:44:15;24.53;;;7.50;;
579;SDS011;276;48.392;9.950;2023-01-20T14:46:43;33.50;;;7.87;;
579;SDS011;276;48.392;9.950;2023-01-20T14:49:11;17.37;;;7.20;;
579;SDS011;276;48.392;9.950;2023-01-20T14:51:43;17.77;;;7.73;;
579;SDS011;276;48.392;9.950;2023-01-20T14:56:55;7.83;;;5.20;;
579;SDS011;276;48.392;9.950;2023-01-20T14:59:22;8.47;;;5.00;;
579;SDS011;276;48.392;9.950;2023-01-20T15:01:54;6.87;;;4.60;;
579;SDS011;276;48.392;9.950;2023-01-20T15:04:24;7.60;;;5.50;;
579;SDS011;276;48.392;9.950;2023-01-20T15:06:50;8.13;;;5.80;;
579;SDS011;276;48.392;9.950;2023-01-20T15:09:27;35.63;;;9.77;;
579;SDS011;276;48.392;9.950;2023-01-20T15:15:10;13.43;;;6.83;;
579;SDS011;276;48.392;9.950;2023-01-20T15:20:27;10.07;;;6.23;;
579;SDS011;276;48.392;9.950;2023-01-20T15:22:56;14.30;;;6.73;;
579;SDS011;276;48.392;9.950;2023-01-20T15:25:24;18.53;;;6.03;;
579;SDS011;276;48.392;9.950;2023-01-20T15:27:52;13.83;;;8.20;;
579;SDS011;276;48.392;9.950;2023-01-20T15:30:21;13.23;;;7.00;;
579;SDS011;276;48.392;9.950;2023-01-20T15:32:51;8.33;;;6.20;;
579;SDS011;276;48.392;9.950;2023-01-20T15:35:19;10.40;;;6.77;;
579;SDS011;276;48.392;9.950;2023-01-20T15:37:47;14.30;;;7.67;;
579;SDS011;276;48.392;9.950;2023-01-20T15:40:17;11.43;;;6.17;;
579;SDS011;276;48.392;9.950;2023-01-20T15:42:44;11.27;;;6.47;;
579;SDS011;276;48.392;9.950;2023-01-20T15:45:15;11.37;;;6.07;;
579;SDS011;276;48.392;9.950;2023-01-20T15:47:44;10.80;;;6.63;;
579;SDS011;276;48.392;9.950;2023-01-20T15:50:14;8.37;;;5.80;;
579;SDS011;276;48.392;9.950;2023-01-20T15:52:45;14.13;;;8.70;;
579;SDS011;276;48.392;9.950;2023-01-20T15:55:14;6.90;;;6.13;;
579;SDS011;276;48.392;9.950;2023-01-20T15:57:51;7.23;;;5.60;;
579;SDS011;276;48.392;9.950;2023-01-20T16:00:18;7.60;;;5.93;;
579;SDS011;276;48.392;9.950;2023-01-20T16:02:45;8.70;;;7.60;;
579;SDS011;276;48.392;9.950;2023-01-20T16:05:11;11.53;;;6.67;;
579;SDS011;276;48.392;9.950;2023-01-20T16:07:37;8.20;;;6.13;;
579;SDS011;276;48.392;9.950;2023-01-20T16:10:11;11.53;;;7.03;;
579;SDS011;276;48.392;9.950;2023-01-20T16:12:38;8.37;;;7.57;;
579;SDS011;276;48.392;9.950;2023-01-20T16:15:07;12.30;;;6.87;;
579;SDS011;276;48.392;9.950;2023-01-20T16:17:36;7.90;;;7.20;;
579;SDS011;276;48.392;9.950;2023-01-20T16:20:02;10.60;;;7.00;;
579;SDS011;276;48.392;9.950;2023-01-20T16:22:31;7.27;;;6.57;;
579;SDS011;276;48.392;9.950;2023-01-20T16:24:56;7.03;;;6.30;;
579;SDS011;276;48.392;9.950;2023-01-20T16:27:22;7.27;;;6.57;;
579;SDS011;276;48.392;9.950;2023-01-20T16:29:50;7.47;;;6.77;;
579;SDS011;276;48.392;9.950;2023-01-20T16:32:16;7.87;;;7.07;;
579;SDS011;276;48.392;9.950;2023-01-20T16:34:43;10.57;;;5.67;;
579;SDS011;276;48.392;9.950;2023-01-20T16:37:10;7.03;;;5.57;;
579;SDS011;276;48.392;9.950;2023-01-20T16:39:40;5.63;;;5.23;;
579;SDS011;276;48.392;9.950;2023-01-20T16:42:11;6.50;;;5.73;;
579;SDS011;276;48.392;9.950;2023-01-20T16:44:40;10.07;;;7.17;;
579;SDS011;276;48.392;9.950;2023-01-20T16:47:05;8.00;;;7.30;;
579;SDS011;276;48.392;9.950;2023-01-20T16:49:34;9.47;;;8.57;;
579;SDS011;276;48.392;9.950;2023-01-20T16:52:00;8.33;;;7.13;;
579;SDS011;276;48.392;9.950;2023-01-20T16:54:25;7.17;;;6.50;;
579;SDS011;276;48.392;9.950;2023-01-20T16:56:51;11.77;;;8.53;;
579;SDS011;276;48.392;9.950;2023-01-20T16:59:16;13.77;;;7.60;;
579;SDS011;276;48.392;9.950;2023-01-20T17:01:42;11.20;;;8.30;;
579;SDS011;276;48.392;9.950;2023-01-20T17:04:16;12.07;;;9.03;;
579;SDS011;276;48.392;9.950;2023-01-20T17:06:44;8.37;;;7.67;;
579;SDS011;276;48.392;9.950;2023-01-20T17:09:12;6.97;;;6.27;;
579;SDS011;276;48.392;9.950;2023-01-20T17:11:38;6.43;;;5.87;;
579;SDS011;276;48.392;9.950;2023-01-20T17:14:05;6.50;;;5.80;;
579;SDS011;276;48.392;9.950;2023-01-20T17:16:32;6.83;;;5.60;;
579;SDS011;276;48.392;9.950;2023-01-20T17:19:01;5.30;;;4.90;;
579;SDS011;276;48.392;9.950;2023-01-20T17:21:29;8.90;;;5.23;;
579;SDS011;276;48.392;9.950;2023-01-20T17:23:58;8.47;;;5.00;;
579;SDS011;276;48.392;9.950;2023-01-20T17:26:27;5.23;;;4.73;;
579;SDS011;276;48.392;9.950;2023-01-20T17:28:54;5.10;;;4.60;;
579;SDS011;276;48.392;9.950;2023-01-20T17:31:20;5.00;;;4.60;;
579;SDS011;276;48.392;9.950;2023-01-20T17:33:47;5.70;;;5.20;;
579;SDS011;276;48.392;9.950;2023-01-20T17:36:13;7.27;;;4.90;;
579;SDS011;276;48.392;9.950;2023-01-20T17:38:41;5.03;;;4.60;;
579;SDS011;276;48.392;9.950;2023-01-20T17:41:10;5.80;;;5.30;;
579;SDS011;276;48.392;9.950;2023-01-20T17:43:38;5.63;;;5.10;;
579;SDS011;276;48.392;9.950;2023-01-20T17:48:49;9.17;;;6.63;;
579;SDS011;276;48.392;9.950;2023-01-20T17:51:20;7.20;;;6.60;;
579;SDS011;276;48.392;9.950;2023-01-20T17:53:52;7.60;;;6.80;;
579;SDS011;276;48.392;9.950;2023-01-20T17:56:19;11.90;;;6.70;;
579;SDS011;276;48.392;9.950;2023-01-20T17:58:46;6.57;;;5.97;;
579;SDS011;276;48.392;9.950;2023-01-20T18:03:42;7.70;;;7.10;;
579;SDS011;276;48.392;9.950;2023-01-20T18:06:16;10.73;;;7.80;;
579;SDS011;276;48.392;9.950;2023-01-20T18:08:48;7.70;;;7.00;;
579;SDS011;276;48.392;9.950;2023-01-20T18:11:22;8.00;;;6.60;;
579;SDS011;276;48.392;9.950;2023-01-20T18:13:49;6.60;;;6.00;;
579;SDS011;276;48.392;9.950;2023-01-20T18:16:18;6.30;;;5.60;;
579;SDS011;276;48.392;9.950;2023-01-20T18:18:44;6.10;;;5.60;;
579;SDS011;276;48.392;9.950;2023-01-20T18:21:19;7.20;;;5.47;;
579;SDS011;276;48.392;9.950;2023-01-20T18:23:46;8.23;;;6.60;;
579;SDS011;276;48.392;9.950;2023-01-20T18:26:16;6.70;;;6.00;;
579;SDS011;276;48.392;9.950;2023-01-20T18:28:46;8.00;;;6.60;;
579;SDS011;276;48.392;9.950;2023-01-20T18:31:16;6.97;;;6.33;;
579;SDS011;276;48.392;9.950;2023-01-20T18:33:44;9.80;;;7.20;;
579;SDS011;276;48.392;9.950;2023-01-20T18:36:13;8.63;;;7.93;;